Time;durP1;ratioP1;P1;durP2;ratioP2;P2;SDS_P1;SDS_P2;PMS_P1;PMS_P2;Temp;Humidity;BMP_temperature;BMP_pressure;BME280_temperature;BME280_humidity;BME280_pressure;Samples;Min_cycle;Max_cycle;Signal;HPM_P1;HPM_P2
2023/04/17 09:13:17;;;;;;;1.40;1.30;;;;;;;;;;4916643;29;20426;-88
2023/04/17 09:15:46;;;;;;;1.30;1.20;;;;;;;;;;4937058;29;20042;-87
2023/04/17 09:18:29;;;;;;;1.83;1.30;;;;;;;;;;4919824;29;20058;-85
2023/04/17 09:20:56;;;;;;;1.42;1.33;;;;;;;;;;4919618;29;20071;-88
2023/04/17 09:23:22;;;;;;;1.40;1.30;;;;;;;;;;4919276;29;20030;-87
2023/04/17 09:26:06;;;;;;;1.40;1.30;;;;;;;;;;4936473;29;20032;-88
2023/04/17 09:28:34;;;;;;;1.50;1.35;;;;;;;;;;4919446;29;20032;-87
2023/04/17 09:31:04;;;;;;;1.10;1.00;;;;;;;;;;4936230;29;20028;-87
2023/04/17 09:33:30;;;;;;;1.20;1.20;;;;;;;;;;4936491;29;20028;-87
2023/04/17 09:35:55;;;;;;;1.15;1.10;;;;;;;;;;4936005;29;20026;-87
2023/04/17 09:38:37;;;;;;;1.55;1.10;;;;;;;;;;4936119;29;20035;-84
2023/04/17 09:41:02;;;;;;;1.25;1.20;;;;;;;;;;4935966;29;20027;-84
2023/04/17 09:44:00;;;;;;;1.25;1.25;;;;;;;;;;4936318;29;20024;-85
2023/04/17 09:46:44;;;;;;;1.45;1.35;;;;;;;;;;4935568;29;20054;-83
2023/04/17 09:49:32;;;;;;;3.63;2.25;;;;;;;;;;4919542;29;20479;-84
2023/04/17 09:51:59;;;;;;;1.50;1.40;;;;;;;;;;4935763;29;20151;-88
2023/04/17 09:54:25;;;;;;;2.30;1.58;;;;;;;;;;4918709;29;20024;-88
2023/04/17 09:56:54;;;;;;;1.80;1.70;;;;;;;;;;4936132;29;20106;-87
2023/04/17 09:59:22;;;;;;;1.40;1.30;;;;;;;;;;4918794;29;20114;-90
2023/04/17 10:01:49;;;;;;;1.70;1.60;;;;;;;;;;4938192;29;20035;-88
2023/04/17 10:04:15;;;;;;;2.65;2.22;;;;;;;;;;4939649;29;20475;-87
2023/04/17 10:06:40;;;;;;;1.80;1.70;;;;;;;;;;4939488;29;20043;-88
2023/04/17 10:09:07;;;;;;;2.17;1.98;;;;;;;;;;4939345;29;20023;-87
2023/04/17 10:11:39;;;;;;;1.48;1.38;;;;;;;;;;4922937;29;20122;-90
2023/04/17 10:14:25;;;;;;;2.45;1.50;;;;;;;;;;4939760;29;20522;-91
2023/04/17 10:16:50;;;;;;;2.45;2.25;;;;;;;;;;4939564;29;20031;-90
2023/04/17 10:19:31;;;;;;;2.08;1.98;;;;;;;;;;4939672;29;20019;-90
2023/04/17 10:22:14;;;;;;;1.60;1.50;;;;;;;;;;4939851;29;20028;-86
2023/04/17 10:24:41;;;;;;;1.50;1.40;;;;;;;;;;4923991;29;20157;-88
2023/04/17 10:27:25;;;;;;;1.60;1.50;;;;;;;;;;4941141;29;20498;-92
2023/04/17 10:29:57;;;;;;;1.40;1.30;;;;;;;;;;4924321;29;20502;-87
2023/04/17 10:32:27;;;;;;;1.52;1.42;;;;;;;;;;4921889;29;20055;-88
2023/04/17 10:35:16;;;;;;;2.35;1.70;;;;;;;;;;4939031;29;20038;-87
2023/04/17 10:37:47;;;;;;;1.73;1.63;;;;;;;;;;4926621;29;20071;-86
2023/04/17 10:40:19;;;;;;;1.88;1.70;;;;;;;;;;4921834;29;20550;-88
2023/04/17 10:43:27;;;;;;;1.77;1.67;;;;;;;;;;4922030;29;20032;-89
2023/04/17 10:46:04;;;;;;;2.08;1.55;;;;;;;;;;4923339;29;20035;-89
2023/04/17 10:48:33;;;;;;;2.30;1.58;;;;;;;;;;4924235;29;20056;-87
2023/04/17 10:51:00;;;;;;;1.48;1.38;;;;;;;;;;4940170;29;20031;-86
2023/04/17 10:53:43;;;;;;;1.50;1.40;;;;;;;;;;4941573;29;20039;-91
2023/04/17 10:56:10;;;;;;;1.40;1.30;;;;;;;;;;4940265;29;20386;-94
2023/04/17 10:58:59;;;;;;;1.35;1.00;;;;;;;;;;4939646;29;20023;-87
2023/04/17 11:01:30;;;;;;;1.48;1.30;;;;;;;;;;4938909;29;20038;-87
2023/04/17 11:03:58;;;;;;;1.23;1.13;;;;;;;;;;4938427;29;20496;-87
2023/04/17 11:06:30;;;;;;;1.30;1.20;;;;;;;;;;4938532;29;20119;-86
2023/04/17 11:08:56;;;;;;;1.30;1.20;;;;;;;;;;4921088;29;20470;-86
2023/04/17 11:11:22;;;;;;;1.20;1.10;;;;;;;;;;4939085;29;20067;-87
2023/04/17 11:13:47;;;;;;;1.20;1.10;;;;;;;;;;4920162;29;20071;-88
2023/04/17 11:16:18;;;;;;;1.50;1.40;;;;;;;;;;4921083;29;20027;-86
2023/04/17 11:18:44;;;;;;;1.27;1.17;;;;;;;;;;4921011;29;20035;-87
2023/04/17 11:21:12;;;;;;;1.25;1.15;;;;;;;;;;4938297;29;20463;-88
2023/04/17 11:23:39;;;;;;;1.40;1.30;;;;;;;;;;4938035;29;20108;-87
2023/04/17 11:26:07;;;;;;;1.15;1.10;;;;;;;;;;4937804;29;20294;-86
2023/04/17 11:28:35;;;;;;;1.40;1.30;;;;;;;;;;4937512;29;20027;-87
2023/04/17 11:31:02;;;;;;;1.23;1.13;;;;;;;;;;4938002;29;20024;-87
2023/04/17 11:33:35;;;;;;;1.30;1.20;;;;;;;;;;4920938;29;20024;-86
2023/04/17 11:36:01;;;;;;;1.35;1.25;;;;;;;;;;4920779;29;20067;-87
2023/04/17 11:38:26;;;;;;;1.00;1.00;;;;;;;;;;4937634;29;20482;-87
2023/04/17 11:40:59;;;;;;;1.10;1.10;;;;;;;;;;4937697;29;20024;-87
2023/04/17 11:43:26;;;;;;;1.38;1.27;;;;;;;;;;4937675;29;20082;-87
2023/04/17 11:45:55;;;;;;;1.23;1.15;;;;;;;;;;4937525;29;20118;-87
2023/04/17 16:08:37;;;;;;;5.30;3.75;;;;;;;;;;5041636;23;20059;-93
2023/04/17 16:11:03;;;;;;;7.18;4.40;;;;;;;;;;4938029;29;20114;-90
2023/04/17 16:13:29;;;;;;;5.85;4.40;;;;;;;;;;4937703;29;20049;-89
2023/04/17 16:15:54;;;;;;;4.60;4.20;;;;;;;;;;4937654;29;20510;-89
2023/04/17 16:18:20;;;;;;;5.13;4.55;;;;;;;;;;4937452;29;20030;-90
2023/04/17 16:20:45;;;;;;;5.47;4.50;;;;;;;;;;4920833;29;20487;-92
2023/04/17 16:23:10;;;;;;;6.38;4.70;;;;;;;;;;4937571;29;20086;-89
2023/04/17 16:25:36;;;;;;;5.75;4.00;;;;;;;;;;4937497;29;20035;-91
2023/04/17 16:28:02;;;;;;;4.93;3.97;;;;;;;;;;4937562;29;20027;-89
2023/04/17 16:30:28;;;;;;;7.20;4.85;;;;;;;;;;4938160;29;20031;-91
2023/04/17 16:32:53;;;;;;;6.00;4.60;;;;;;;;;;4939375;29;20039;-92
2023/04/17 16:35:18;;;;;;;4.95;4.45;;;;;;;;;;4922293;29;20383;-92
2023/04/17 16:37:44;;;;;;;6.50;5.15;;;;;;;;;;4920335;29;20475;-92
2023/04/17 16:40:10;;;;;;;6.55;5.03;;;;;;;;;;4937441;29;20029;-93
2023/04/17 16:42:36;;;;;;;5.25;4.38;;;;;;;;;;4937504;29;20497;-92
2023/04/17 16:45:01;;;;;;;7.03;4.40;;;;;;;;;;4920250;29;20031;-96
2023/04/17 16:47:28;;;;;;;4.80;4.25;;;;;;;;;;4937089;29;20063;-90
2023/04/17 16:49:54;;;;;;;5.38;4.25;;;;;;;;;;4920485;29;20051;-91
2023/04/17 16:52:20;;;;;;;5.30;4.10;;;;;;;;;;4936837;29;20051;-88
2023/04/17 16:54:45;;;;;;;6.35;4.85;;;;;;;;;;4919530;29;20110;-94
2023/04/17 16:57:10;;;;;;;7.85;4.97;;;;;;;;;;4937216;29;20024;-95
2023/04/17 16:59:36;;;;;;;6.78;4.28;;;;;;;;;;4920249;29;20058;-93
2023/04/17 17:02:01;;;;;;;5.63;4.43;;;;;;;;;;4937069;29;20028;-91
2023/04/17 17:04:27;;;;;;;5.85;4.70;;;;;;;;;;4936823;29;20534;-90
2023/04/17 17:06:53;;;;;;;6.97;5.30;;;;;;;;;;4936725;29;20043;-84
2023/04/17 17:09:19;;;;;;;7.20;5.38;;;;;;;;;;4936318;29;20102;-88
2023/04/17 17:11:45;;;;;;;6.00;4.75;;;;;;;;;;4918465;29;20407;-89
2023/04/17 17:14:10;;;;;;;6.03;4.53;;;;;;;;;;4919529;29;20446;-85
2023/04/17 17:16:36;;;;;;;5.90;4.60;;;;;;;;;;4939811;29;20060;-83
2023/04/17 17:19:01;;;;;;;8.30;4.55;;;;;;;;;;4945242;29;20059;-85
2023/04/17 17:21:27;;;;;;;5.65;4.15;;;;;;;;;;4922913;29;20038;-85
2023/04/17 17:23:53;;;;;;;6.28;5.00;;;;;;;;;;4936710;29;20024;-85
2023/04/17 17:26:18;;;;;;;9.20;4.90;;;;;;;;;;4936130;29;20035;-85
2023/04/17 17:28:49;;;;;;;6.53;4.00;;;;;;;;;;4936301;29;20039;-88
2023/04/17 17:31:15;;;;;;;5.60;3.90;;;;;;;;;;4922953;29;20056;-85
2023/04/17 17:33:41;;;;;;;6.72;4.07;;;;;;;;;;4919107;29;20475;-86
2023/04/17 17:36:07;;;;;;;5.32;3.80;;;;;;;;;;4936123;29;20356;-85
2023/04/17 17:38:33;;;;;;;4.72;3.97;;;;;;;;;;4936005;29;20030;-85
2023/04/17 17:40:59;;;;;;;5.78;3.75;;;;;;;;;;4919128;29;20111;-83
2023/04/17 17:43:26;;;;;;;5.45;4.22;;;;;;;;;;4936474;29;20052;-82
2023/04/17 17:45:52;;;;;;;4.60;4.13;;;;;;;;;;4935849;29;20032;-85
2023/04/17 17:48:19;;;;;;;4.50;3.97;;;;;;;;;;4935924;29;20051;-86
2023/04/17 17:50:45;;;;;;;4.20;3.75;;;;;;;;;;4919375;29;20032;-89
2023/04/17 17:53:11;;;;;;;4.60;4.10;;;;;;;;;;4919429;29;20527;-93
2023/04/17 17:55:37;;;;;;;5.43;4.20;;;;;;;;;;4920966;29;20024;-93
2023/04/17 17:58:07;;;;;;;4.78;3.97;;;;;;;;;;4919896;29;20066;-93
2023/04/17 18:00:34;;;;;;;4.80;4.07;;;;;;;;;;4936659;29;20067;-91
2023/04/17 18:03:00;;;;;;;5.63;3.88;;;;;;;;;;4919600;29;20023;-87
2023/04/17 18:05:26;;;;;;;5.25;3.92;;;;;;;;;;4919756;29;20031;-93
2023/04/17 18:07:51;;;;;;;4.15;3.70;;;;;;;;;;4936410;29;20063;-90
2023/04/17 18:10:16;;;;;;;4.65;3.75;;;;;;;;;;4919287;29;20434;-87
2023/04/17 18:12:42;;;;;;;3.60;3.28;;;;;;;;;;4936104;29;20459;-84
2023/04/17 18:15:08;;;;;;;4.88;3.67;;;;;;;;;;4935544;29;20070;-84
2023/04/17 18:17:33;;;;;;;3.90;3.35;;;;;;;;;;4936093;29;20028;-85
2023/04/17 18:19:59;;;;;;;4.05;3.65;;;;;;;;;;4936011;29;20023;-83
2023/04/17 18:22:24;;;;;;;5.18;4.03;;;;;;;;;;4919466;29;20036;-87
2023/04/17 18:24:53;;;;;;;4.85;4.10;;;;;;;;;;4938400;29;20038;-84
2023/04/17 18:27:19;;;;;;;4.32;3.42;;;;;;;;;;4939345;29;20024;-86
2023/04/17 18:29:45;;;;;;;4.63;3.80;;;;;;;;;;4939215;29;20110;-86
2023/04/17 18:32:10;;;;;;;3.55;3.17;;;;;;;;;;4938937;29;20050;-87
2023/04/17 18:34:36;;;;;;;3.70;3.20;;;;;;;;;;4921802;29;20060;-85
2023/04/17 18:37:02;;;;;;;4.88;3.22;;;;;;;;;;4921793;29;20086;-87
2023/04/17 19:36:22;;;;;;;4.13;3.30;;;;;;;;;;4921753;29;20051;-89
2023/04/17 19:38:47;;;;;;;4.10;2.95;;;;;;;;;;4955493;29;20090;-86
2023/04/17 19:41:18;;;;;;;3.08;2.78;;;;;;;;;;4957238;28;20496;-86
2023/04/17 19:43:44;;;;;;;3.95;3.08;;;;;;;;;;4939456;29;20039;-87
2023/04/17 19:46:12;;;;;;;3.95;3.10;;;;;;;;;;4937968;29;20027;-86
2023/04/17 19:48:38;;;;;;;3.42;3.00;;;;;;;;;;4949455;29;20033;-88
2023/04/17 19:51:06;;;;;;;4.03;3.10;;;;;;;;;;4956385;29;20031;-89
2023/04/17 19:53:37;;;;;;;3.80;3.00;;;;;;;;;;4956236;29;20027;-88
2023/04/17 19:56:04;;;;;;;3.63;2.97;;;;;;;;;;4956983;28;20051;-88
2023/04/17 19:58:30;;;;;;;3.80;3.00;;;;;;;;;;4957113;28;20102;-87
2023/04/17 20:00:59;;;;;;;3.70;3.00;;;;;;;;;;4956877;29;20031;-87
2023/04/17 20:03:26;;;;;;;3.15;2.85;;;;;;;;;;4955154;29;20023;-87
2023/04/17 20:05:51;;;;;;;3.10;2.53;;;;;;;;;;4956540;28;20034;-89
2023/04/17 20:08:17;;;;;;;4.13;3.13;;;;;;;;;;4956594;29;20027;-87
2023/04/17 20:10:42;;;;;;;3.30;2.83;;;;;;;;;;4955328;29;20126;-87
2023/04/17 20:13:12;;;;;;;3.80;2.78;;;;;;;;;;4954982;29;20110;-87
2023/04/17 20:15:38;;;;;;;3.38;2.60;;;;;;;;;;4955262;29;20176;-87
2023/04/17 20:18:05;;;;;;;4.05;3.50;;;;;;;;;;4955358;29;20042;-88
2023/04/17 20:20:31;;;;;;;3.75;3.00;;;;;;;;;;4954907;29;20050;-86
2023/04/17 20:22:57;;;;;;;3.35;2.67;;;;;;;;;;4956048;28;20482;-88
2023/04/17 20:25:22;;;;;;;3.25;2.95;;;;;;;;;;4955221;29;20031;-88
2023/04/17 20:27:47;;;;;;;3.63;3.08;;;;;;;;;;4955017;29;20031;-89
2023/04/17 20:30:14;;;;;;;3.45;3.15;;;;;;;;;;4956303;28;20035;-87
2023/04/17 20:32:41;;;;;;;4.50;3.13;;;;;;;;;;4954716;29;20067;-90
2023/04/17 20:35:10;;;;;;;2.90;2.53;;;;;;;;;;4956161;28;20089;-86
2023/04/17 20:37:36;;;;;;;3.88;3.25;;;;;;;;;;4973739;28;20162;-87
2023/04/17 20:40:01;;;;;;;3.78;3.20;;;;;;;;;;4975125;28;20109;-86
2023/04/17 20:42:27;;;;;;;3.80;3.40;;;;;;;;;;4957925;28;20022;-87
2023/04/17 20:44:52;;;;;;;3.92;3.00;;;;;;;;;;4975298;28;20152;-86
2023/04/17 20:47:17;;;;;;;3.55;2.97;;;;;;;;;;4975032;28;20031;-87
2023/04/17 20:49:43;;;;;;;4.05;3.03;;;;;;;;;;4957957;28;20034;-87
2023/04/17 20:52:08;;;;;;;3.47;3.05;;;;;;;;;;4975078;28;20027;-87
2023/04/17 20:54:34;;;;;;;3.42;3.13;;;;;;;;;;4975218;28;20485;-86
2023/04/17 20:57:00;;;;;;;3.45;2.55;;;;;;;;;;4975047;28;20042;-86
2023/04/17 20:59:26;;;;;;;2.95;2.65;;;;;;;;;;4974964;28;20378;-86
2023/04/17 21:01:51;;;;;;;3.22;2.85;;;;;;;;;;4974858;28;20035;-86
2023/04/17 21:04:17;;;;;;;3.67;3.17;;;;;;;;;;4975103;28;20470;-86
2023/04/17 21:06:42;;;;;;;3.95;3.28;;;;;;;;;;4974773;28;20470;-86
2023/04/17 21:09:08;;;;;;;3.42;2.70;;;;;;;;;;4957551;28;20489;-86
2023/04/17 21:11:34;;;;;;;3.80;3.17;;;;;;;;;;4975043;28;20466;-86
2023/04/17 21:13:59;;;;;;;3.53;3.22;;;;;;;;;;4957454;28;20031;-86
2023/04/17 21:16:25;;;;;;;4.78;3.83;;;;;;;;;;4974846;28;20033;-86
2023/04/17 21:18:51;;;;;;;4.82;3.90;;;;;;;;;;4957392;28;20038;-86
2023/04/17 21:21:16;;;;;;;6.00;4.82;;;;;;;;;;4974754;28;20023;-86
2023/04/17 21:23:42;;;;;;;5.38;4.32;;;;;;;;;;4974482;28;20029;-86
2023/04/17 21:26:07;;;;;;;5.28;3.85;;;;;;;;;;4974638;28;20033;-85
2023/04/17 21:28:35;;;;;;;4.40;4.00;;;;;;;;;;4974756;28;20532;-86
2023/04/17 21:31:00;;;;;;;4.22;3.60;;;;;;;;;;4974804;28;20102;-86
2023/04/17 21:33:26;;;;;;;3.78;3.28;;;;;;;;;;4974665;28;20110;-85
2023/04/17 21:35:51;;;;;;;4.68;2.92;;;;;;;;;;4974536;28;20453;-86
2023/04/17 21:38:17;;;;;;;3.88;3.40;;;;;;;;;;4957318;28;20374;-86
2023/04/17 21:40:42;;;;;;;3.33;2.90;;;;;;;;;;4974694;28;20023;-86
2023/04/17 21:43:08;;;;;;;3.47;3.03;;;;;;;;;;4974306;28;20027;-85
2023/04/17 21:45:33;;;;;;;3.53;3.20;;;;;;;;;;4974515;28;20026;-85
2023/04/17 21:47:59;;;;;;;3.78;3.20;;;;;;;;;;4974519;28;20026;-85
2023/04/17 21:50:24;;;;;;;3.78;3.13;;;;;;;;;;4974450;28;20398;-85
2023/04/17 21:52:49;;;;;;;4.28;3.10;;;;;;;;;;4956999;28;20462;-85
2023/04/17 21:55:15;;;;;;;3.63;3.30;;;;;;;;;;4974589;28;20444;-85
2023/04/17 21:57:40;;;;;;;4.53;3.80;;;;;;;;;;4976635;28;20031;-88
2023/04/17 22:00:10;;;;;;;4.53;3.70;;;;;;;;;;4960661;28;20033;-86
2023/04/17 22:02:35;;;;;;;;;;;;;;;;;;4978475;28;20023;-86
2023/04/17 22:05:01;;;;;;;4.85;3.53;;;;;;;;;;4960674;28;19914;-86
2023/04/17 22:07:27;;;;;;;5.53;4.15;;;;;;;;;;4978005;28;20034;-86
2023/04/17 22:09:52;;;;;;;6.43;4.55;;;;;;;;;;4977845;28;20023;-86
2023/04/17 22:12:19;;;;;;;5.75;3.88;;;;;;;;;;4977798;28;20026;-86
2023/04/17 22:14:45;;;;;;;6.32;4.50;;;;;;;;;;4973053;28;20070;-86
2023/04/17 22:17:11;;;;;;;4.93;4.47;;;;;;;;;;4954092;28;20038;-84
2023/04/17 22:19:36;;;;;;;4.97;4.03;;;;;;;;;;4951483;29;20027;-83
